Detall de PIREP

Printer-friendly versionPDF version

[2013/02/23 08:24:00]
Flight IATA:CT0001
Pilot Number:041
Company ICAO:CAT
Aircraft Type:A320/E
PAX:89
Departing Airport: LEGE
Destination Airport: LELC
Alternate Airport:LEMG
Online: VATSIM
Route:DCT MAMUK H110 SEROX A34 ALT DCT
Flight Level:F170
No Slew and time accel
No pause
Crash detect
Detect pilot in Cockpit between each 30 and 45 minutes
08:24 Zero fuel Weight: 134051 Lbs, Fuel Weight: 12312 Lbs
08:24 VATSIM:LEGE 230800Z VRB01KT 9999 SCT035 BKN070 01/M04 Q1000
08:24 VATSIM:LELC 230800Z 27004KT 260V320 CAVOK 11/04 Q1003 NOSIG
08:24 VOICE CATALONIAN
08:29 Parking Brakes off
08:35 Take-off
08:35 Take off Weight: 145423 Lbs
08:35 Wind: 042º @ 004 Knots Heading: 195º
08:35 POS N41º 53´ 38´´ E002º 45´ 28´´
08:35 Gear Up: 176 Knots
08:35 Flaps:3 at 176 Knots
08:36 Flaps:2 at 157 Knots
08:36 Flaps:1 at 180 Knots
08:36 Flaps:0 at 198 Knots
08:41 TOC
08:41 Fuel Weight: 9406 Lb
08:50 Wind:248º@029 Knots Heading: 258º Ground Speed: 342 Knots Altitude 16620 ft
09:05 Wind:256º@020 Knots Heading: 199º Ground Speed: 360 Knots Altitude 16666 ft
09:20 Wind:279º@028 Knots Heading: 187º Ground Speed: 372 Knots Altitude 16633 ft
09:25 TOD
09:25 Fuel Weight: 3258 Lb
09:35 Wind:262º@030 Knots Heading: 184º Ground Speed: 258 Knots Altitude 5134 ft
09:36 Flaps:1 at 215 Knots
09:36 Flaps:2 at 189 Knots
09:37 Gear Down: 167 Knots
09:37 Flaps:3 at 163 Knots
09:38 Flaps:4 at 144 Knots
09:38 Flaps:5 at 144 Knots
09:42 TouchDown:Rate -191 ft/min Speed: 129 Knots
09:42 Flaps:0 at 99 Knots
09:42 VATSIM:LELC 230900Z VRB02KT CAVOK 13/05 Q1003 NOSIG
09:42 Land
09:42 Wind:073º@001 Knots
09:42 Heading: 228º
09:42 Flight Duration: 01:07
09:42 Landing Weight: 135701 Lbs
09:42 POS N37º 46´ 20´´ W000º 48´ 54´´
09:44 Parking brakes on
09:44 Block to Block Duration: 01:15
09:44 Final Fuel: 1534 Lbls
09:44 Spent Fuel: 10778 Lbls
09:44 Flight Length: 355 NM
09:44 TOD Land Length: 64 NM

Exportar CSV

Powered by Drupal - Modified by Danger4k